createdAt,value
2023-05-10T00:01:31.814Z,85.10
2023-05-10T00:03:41.684Z,85.10
2023-05-10T00:05:50.422Z,85.30
2023-05-10T00:07:58.966Z,85.80
2023-05-10T00:10:09.918Z,85.80
2023-05-10T00:12:18.642Z,86.00
2023-05-10T00:14:27.115Z,86.60
2023-05-10T00:16:35.784Z,86.70
2023-05-10T00:18:44.392Z,86.70
2023-05-10T00:20:53.408Z,86.80
2023-05-10T00:23:02.335Z,87.10
2023-05-10T00:25:14.454Z,87.60
2023-05-10T00:27:23.403Z,88.00
2023-05-10T00:29:32.794Z,88.40
2023-05-10T00:31:41.100Z,89.10
2023-05-10T00:33:49.914Z,89.50
2023-05-10T00:35:58.688Z,89.70
2023-05-10T00:38:07.144Z,90.00
2023-05-10T00:40:17.948Z,90.00
2023-05-10T00:42:26.920Z,90.30
2023-05-10T00:44:35.567Z,90.40
2023-05-10T00:46:44.569Z,90.80
2023-05-10T00:48:53.360Z,90.70
2023-05-10T00:51:02.852Z,90.80
2023-05-10T00:53:12.638Z,92.00
2023-05-10T00:55:23.147Z,94.60
2023-05-10T00:57:31.616Z,95.00
2023-05-10T00:59:39.949Z,95.20
2023-05-10T01:01:49.270Z,95.30
2023-05-10T01:03:58.352Z,95.90
2023-05-10T01:06:08.769Z,95.90
2023-05-10T01:08:17.333Z,96.00
2023-05-10T01:10:27.606Z,96.30
2023-05-10T01:12:37.323Z,96.70
2023-05-10T01:14:46.110Z,96.90
2023-05-10T01:16:55.802Z,97.10
2023-05-10T01:19:06.349Z,97.50
2023-05-10T01:21:21.729Z,97.30
2023-05-10T01:23:53.766Z,97.80
2023-05-10T01:26:26.082Z,97.80
2023-05-10T01:28:50.857Z,98.10
2023-05-10T01:31:33.740Z,98.60
2023-05-10T01:33:49.784Z,99.20
2023-05-10T01:36:15.668Z,99.40
2023-05-10T01:38:32.597Z,99.90
2023-05-10T01:40:49.159Z,99.90
2023-05-10T01:43:03.912Z,99.90
2023-05-10T01:45:20.637Z,99.90
2023-05-10T01:47:37.783Z,99.90
2023-05-10T01:49:52.345Z,99.90
2023-05-10T01:52:06.436Z,99.90
2023-05-10T01:54:17.868Z,99.90
2023-05-10T01:56:29.057Z,99.90
2023-05-10T01:58:41.257Z,99.90
2023-05-10T02:00:52.151Z,99.90
2023-05-10T02:03:02.536Z,99.90
2023-05-10T02:05:15.875Z,99.90
2023-05-10T02:07:25.726Z,99.90
2023-05-10T02:09:36.730Z,99.90
2023-05-10T02:11:46.170Z,99.90
2023-05-10T02:13:57.430Z,99.90
2023-05-10T02:16:07.523Z,99.90
2023-05-10T02:18:17.849Z,99.90
2023-05-10T02:20:28.804Z,99.90
2023-05-10T02:22:39.834Z,99.90
2023-05-10T02:24:49.840Z,99.90
2023-05-10T02:26:59.863Z,99.90
2023-05-10T02:29:10.630Z,99.90
2023-05-10T02:31:20.684Z,99.90
2023-05-10T02:33:30.244Z,99.90
2023-05-10T02:35:41.486Z,99.90
2023-05-10T02:37:51.871Z,99.90
2023-05-10T02:40:01.859Z,99.90
2023-05-10T02:42:11.543Z,99.90
2023-05-10T02:44:22.297Z,99.90
2023-05-10T02:46:31.149Z,99.90
2023-05-10T02:48:39.743Z,99.90
2023-05-10T02:50:52.571Z,99.90
2023-05-10T02:53:04.248Z,99.90
2023-05-10T02:55:17.076Z,99.90
2023-05-10T02:57:34.837Z,99.90
2023-05-10T02:59:43.955Z,99.90
2023-05-10T03:01:52.654Z,99.90
2023-05-10T03:04:01.398Z,99.90
2023-05-10T03:06:11.624Z,99.90
2023-05-10T03:08:20.357Z,99.90
2023-05-10T03:10:31.646Z,99.90
2023-05-10T03:12:59.509Z,99.90
2023-05-10T03:15:16.363Z,99.90
2023-05-10T03:17:31.662Z,99.90
2023-05-10T03:19:48.439Z,99.90
2023-05-10T03:22:06.062Z,99.90
2023-05-10T03:24:16.883Z,99.90
2023-05-10T03:26:29.717Z,99.90
2023-05-10T03:28:39.324Z,99.90
2023-05-10T03:30:48.560Z,99.90
2023-05-10T03:32:58.111Z,99.90
2023-05-10T03:35:10.005Z,99.90
2023-05-10T03:37:20.053Z,99.90
2023-05-10T03:39:28.600Z,99.90
2023-05-10T03:41:36.961Z,99.90
2023-05-10T03:43:45.546Z,99.90
2023-05-10T03:45:54.237Z,99.90
2023-05-10T03:48:03.141Z,99.90
2023-05-10T03:50:12.320Z,99.90
2023-05-10T03:52:22.816Z,99.90
2023-05-10T03:54:31.646Z,99.90
2023-05-10T03:56:40.509Z,99.90
2023-05-10T03:58:49.327Z,99.90
2023-05-10T04:00:57.633Z,99.90
2023-05-10T04:03:06.232Z,99.90
2023-05-10T04:05:15.111Z,99.90
2023-05-10T04:07:25.307Z,99.90
2023-05-10T04:09:34.134Z,99.90
2023-05-10T04:11:43.009Z,99.90
2023-05-10T04:13:51.514Z,99.90
2023-05-10T04:16:00.213Z,99.90
2023-05-10T04:18:09.226Z,99.90
2023-05-10T04:20:17.816Z,99.90
2023-05-10T04:22:28.902Z,99.90
2023-05-10T04:24:37.733Z,99.90
2023-05-10T04:26:46.655Z,99.90
2023-05-10T04:28:55.203Z,99.90
2023-05-10T04:31:04.857Z,99.90
2023-05-10T04:33:13.531Z,99.90
2023-05-10T04:35:22.558Z,99.90
2023-05-10T04:37:32.600Z,99.90
2023-05-10T04:39:42.336Z,99.90
2023-05-10T04:41:51.242Z,99.90
2023-05-10T04:43:59.583Z,99.90
2023-05-10T04:46:08.742Z,99.90
2023-05-10T04:48:17.522Z,99.90
2023-05-10T04:50:26.084Z,99.90
2023-05-10T04:52:37.425Z,99.90
2023-05-10T04:54:45.928Z,99.90
2023-05-10T04:56:54.959Z,99.90
2023-05-10T04:59:04.795Z,99.90
2023-05-10T05:01:13.628Z,99.90
2023-05-10T05:03:22.170Z,99.90
2023-05-10T05:05:30.658Z,99.90
2023-05-10T05:07:41.369Z,99.90
2023-05-10T05:09:50.314Z,99.90
2023-05-10T05:11:58.734Z,99.90
2023-05-10T05:14:07.160Z,99.90
2023-05-10T05:16:16.249Z,99.90
2023-05-10T05:18:24.785Z,99.90
2023-05-10T05:20:35.454Z,99.90
2023-05-10T05:22:45.381Z,99.90
2023-05-10T05:24:54.052Z,99.90
2023-05-10T05:27:02.855Z,99.90
2023-05-10T05:29:11.733Z,99.90
2023-05-10T05:31:20.564Z,99.90
2023-05-10T05:33:28.866Z,99.90
2023-05-10T05:35:37.741Z,99.90
2023-05-10T05:37:47.747Z,99.60
2023-05-10T05:39:56.572Z,99.90
2023-05-10T05:42:05.532Z,99.90
2023-05-10T05:44:14.276Z,98.70
2023-05-10T05:46:22.790Z,98.20
2023-05-10T05:48:32.686Z,98.20
2023-05-10T05:50:41.406Z,97.60
2023-05-10T05:52:52.496Z,97.80
2023-05-10T05:55:01.405Z,98.20
2023-05-10T05:57:10.298Z,97.60
2023-05-10T05:59:19.221Z,97.20
2023-05-10T06:01:28.051Z,98.20
2023-05-10T06:03:36.406Z,97.40
2023-05-10T06:05:44.741Z,97.20
2023-05-10T06:07:55.050Z,97.30
2023-05-10T06:10:04.385Z,97.60
2023-05-10T06:12:13.443Z,97.20
2023-05-10T06:14:23.526Z,97.50
2023-05-10T06:16:32.216Z,97.40
2023-05-10T06:18:40.809Z,97.80
2023-05-10T06:20:49.741Z,96.60
2023-05-10T06:22:59.581Z,97.10
2023-05-10T06:25:09.693Z,97.80
2023-05-10T06:27:18.474Z,97.20
2023-05-10T06:29:27.606Z,97.50
2023-05-10T06:31:36.409Z,97.90
2023-05-10T06:33:45.103Z,97.20
2023-05-10T06:35:53.686Z,97.20
2023-05-10T06:38:03.848Z,96.90
2023-05-10T06:40:13.204Z,96.90
2023-05-10T06:42:21.970Z,97.80
2023-05-10T06:44:30.319Z,97.90
2023-05-10T06:48:49.463Z,99.90
2023-05-10T06:50:58.246Z,99.90
2023-05-10T06:55:19.634Z,90.00
2023-05-10T06:57:31.858Z,91.70
2023-05-10T06:59:41.070Z,91.00
2023-05-10T07:01:49.893Z,91.10
2023-05-10T07:03:58.570Z,90.30
2023-05-10T07:08:28.710Z,90.30
2023-05-10T07:10:37.260Z,92.10
2023-05-10T07:12:46.244Z,93.70
2023-05-10T07:14:54.793Z,95.50
2023-05-10T07:17:03.393Z,94.70
2023-05-10T07:19:12.756Z,91.80
2023-05-10T07:21:21.462Z,90.40
2023-05-10T07:23:31.752Z,91.00
2023-05-10T07:25:40.430Z,91.00
2023-05-10T07:27:49.649Z,90.40
2023-05-10T07:29:58.312Z,88.20
2023-05-10T07:32:07.295Z,88.60
2023-05-10T07:34:16.067Z,88.90
2023-05-10T07:36:24.699Z,86.60
2023-05-10T07:38:35.193Z,88.30
2023-05-10T07:40:43.522Z,85.50
2023-05-10T07:42:51.821Z,85.90
2023-05-10T07:45:00.669Z,84.60
2023-05-10T07:47:09.571Z,84.50
2023-05-10T07:49:18.480Z,83.00
2023-05-10T07:51:27.702Z,83.10
2023-05-10T07:53:37.685Z,82.40
2023-05-10T07:55:46.201Z,82.60
2023-05-10T07:57:54.549Z,82.30
2023-05-10T08:00:03.286Z,82.40
2023-05-10T08:02:11.851Z,82.10
2023-05-10T08:04:20.609Z,81.80
2023-05-10T08:06:32.056Z,79.80
2023-05-10T08:08:42.518Z,80.90
2023-05-10T08:10:51.272Z,79.60
2023-05-10T08:13:00.350Z,80.20
2023-05-10T08:15:10.357Z,79.00
2023-05-10T08:17:19.946Z,74.20
2023-05-10T08:19:29.338Z,74.00
2023-05-10T08:21:38.456Z,71.70
2023-05-10T08:23:48.511Z,70.40
2023-05-10T08:25:56.985Z,70.10
2023-05-10T08:28:05.779Z,71.30
2023-05-10T08:30:15.125Z,69.10
2023-05-10T08:32:23.512Z,70.20
2023-05-10T08:34:32.493Z,69.90
2023-05-10T08:36:41.124Z,68.20
2023-05-10T08:38:53.425Z,66.20
2023-05-10T08:41:04.141Z,65.30
2023-05-10T08:43:15.731Z,66.00
2023-05-10T08:45:26.896Z,65.00
2023-05-10T08:47:36.578Z,67.30
2023-05-10T08:49:47.299Z,66.10
2023-05-10T08:51:58.812Z,64.40
2023-05-10T08:54:09.286Z,68.30
2023-05-10T08:56:19.017Z,64.70
2023-05-10T08:58:28.518Z,64.10
2023-05-10T09:00:38.257Z,59.80
2023-05-10T09:02:48.252Z,59.40
2023-05-10T09:04:57.162Z,60.00
2023-05-10T09:07:06.428Z,58.70
2023-05-10T09:09:17.365Z,59.50
2023-05-10T09:11:26.987Z,57.90
2023-05-10T09:13:36.171Z,58.30
2023-05-10T09:15:45.899Z,57.60
2023-05-10T09:17:55.181Z,56.90
2023-05-10T09:20:05.123Z,56.10
2023-05-10T09:22:13.437Z,56.00
2023-05-10T09:24:28.473Z,55.50
2023-05-10T09:26:38.064Z,55.90
2023-05-10T09:28:54.603Z,56.90
2023-05-10T09:31:03.144Z,56.70
2023-05-10T09:33:11.978Z,56.30
2023-05-10T09:35:22.585Z,55.00
2023-05-10T09:37:32.925Z,55.10
2023-05-10T09:39:43.348Z,57.60
2023-05-10T09:41:51.876Z,54.50
2023-05-10T09:44:00.604Z,54.90
2023-05-10T09:46:12.534Z,52.60
2023-05-10T09:48:21.154Z,52.90
2023-05-10T09:50:30.128Z,54.50
2023-05-10T09:52:50.145Z,53.50
2023-05-10T09:55:00.952Z,53.10
2023-05-10T09:57:22.341Z,54.00
2023-05-10T09:59:31.882Z,52.50
2023-05-10T10:01:40.655Z,51.80
2023-05-10T10:03:49.718Z,51.50
2023-05-10T10:05:58.101Z,52.80
2023-05-10T10:08:07.742Z,51.50
2023-05-10T10:10:18.623Z,52.00
2023-05-10T10:12:27.887Z,52.10
2023-05-10T10:14:37.442Z,50.20
2023-05-10T10:16:55.671Z,51.10
2023-05-10T10:19:14.360Z,50.90
2023-05-10T10:21:23.255Z,51.30
2023-05-10T10:23:31.889Z,50.90
2023-05-10T10:25:42.510Z,52.10
2023-05-10T10:28:00.269Z,50.40
2023-05-10T10:30:19.408Z,50.40
2023-05-10T10:32:38.209Z,50.00
2023-05-10T10:34:47.111Z,50.00
2023-05-10T10:36:57.749Z,49.90
2023-05-10T10:39:11.999Z,49.80
2023-05-10T10:41:33.887Z,50.70
2023-05-10T10:43:42.808Z,51.10
2023-05-10T10:46:13.348Z,50.90
2023-05-10T10:48:25.437Z,50.80
2023-05-10T10:50:45.413Z,50.10
2023-05-10T10:52:54.118Z,51.40
2023-05-10T10:55:05.121Z,50.90
2023-05-10T10:57:15.927Z,52.40
2023-05-10T10:59:30.095Z,52.40
2023-05-10T11:01:38.875Z,51.60
2023-05-10T11:04:23.913Z,51.20
2023-05-10T11:06:34.692Z,49.90
2023-05-10T11:08:47.045Z,50.80
2023-05-10T11:11:05.775Z,50.20
2023-05-10T11:13:15.764Z,49.90
2023-05-10T11:15:32.526Z,51.20
2023-05-10T11:17:41.105Z,50.40
2023-05-10T11:20:11.096Z,49.90
2023-05-10T11:22:19.640Z,50.30
2023-05-10T11:24:30.342Z,50.50
2023-05-10T11:26:39.158Z,50.60
2023-05-10T11:28:51.321Z,52.20
2023-05-10T11:30:59.909Z,50.10
2023-05-10T11:33:09.794Z,49.50
2023-05-10T11:35:18.545Z,49.30
2023-05-10T11:37:33.347Z,49.90
2023-05-10T11:39:48.286Z,49.50
2023-05-10T11:41:57.793Z,49.20
2023-05-10T11:44:07.773Z,48.80
2023-05-10T11:46:16.980Z,48.90
2023-05-10T11:48:25.296Z,49.80
2023-05-10T11:50:33.732Z,49.40
2023-05-10T11:52:42.611Z,50.30
2023-05-10T11:54:54.664Z,50.00
2023-05-10T11:57:03.695Z,49.70
2023-05-10T11:59:16.805Z,49.30
2023-05-10T12:01:25.695Z,49.20
2023-05-10T12:03:35.185Z,50.40
2023-05-10T12:05:44.481Z,51.00
2023-05-10T12:07:52.788Z,50.80
2023-05-10T12:10:09.573Z,49.90
2023-05-10T12:12:19.470Z,49.20
2023-05-10T12:14:29.888Z,48.00
2023-05-10T12:16:38.854Z,47.30
2023-05-10T12:18:47.841Z,47.10
2023-05-10T12:20:56.761Z,47.60
2023-05-10T12:23:06.531Z,48.10
2023-05-10T12:25:15.265Z,48.60
2023-05-10T12:27:23.815Z,48.90
2023-05-10T12:29:34.108Z,48.50
2023-05-10T12:31:55.662Z,48.30
2023-05-10T12:34:04.417Z,48.40
2023-05-10T12:36:14.247Z,49.10
2023-05-10T12:38:31.936Z,48.80
2023-05-10T12:40:40.906Z,48.90
2023-05-10T12:42:50.107Z,48.50
2023-05-10T12:45:00.757Z,48.60
2023-05-10T12:47:10.144Z,48.40
2023-05-10T12:49:20.063Z,49.00
2023-05-10T12:51:28.705Z,49.50
2023-05-10T12:53:37.525Z,49.20
2023-05-10T12:55:46.661Z,50.30
2023-05-10T12:57:55.178Z,49.00
2023-05-10T13:00:06.557Z,48.80
2023-05-10T13:02:15.751Z,49.50
2023-05-10T13:04:24.297Z,49.20
2023-05-10T13:06:33.633Z,49.80
2023-05-10T13:08:42.355Z,49.20
2023-05-10T13:10:51.261Z,49.30
2023-05-10T13:13:00.568Z,49.60
2023-05-10T13:15:12.498Z,49.40
2023-05-10T13:17:21.073Z,51.00
2023-05-10T13:19:29.876Z,49.50
2023-05-10T13:21:38.584Z,49.50
2023-05-10T13:23:47.999Z,49.40
2023-05-10T13:25:56.832Z,49.60
2023-05-10T13:28:05.368Z,49.90
2023-05-10T13:30:15.792Z,49.40
2023-05-10T13:32:24.394Z,49.40
2023-05-10T13:34:33.257Z,50.50
2023-05-10T13:36:41.690Z,49.40
2023-05-10T13:38:50.157Z,49.80
2023-05-10T13:40:58.924Z,50.20
2023-05-10T13:43:07.426Z,50.80
